createdAt,value
2018-11-20T00:01:50.235Z,15.33
2018-11-20T00:11:51.525Z,14.87
2018-11-20T00:21:52.791Z,14.57
2018-11-20T00:31:54.052Z,13.23
2018-11-20T00:41:55.320Z,13.77
2018-11-20T00:51:56.566Z,12.50
2018-11-20T01:01:57.811Z,13.50
2018-11-20T01:11:59.111Z,11.93
2018-11-20T01:22:00.379Z,12.17
2018-11-20T01:32:01.647Z,10.37
2018-11-20T01:42:02.910Z,9.03
2018-11-20T01:52:04.180Z,8.87
2018-11-20T02:02:05.468Z,9.03
2018-11-20T02:12:06.770Z,10.03
2018-11-20T02:22:08.040Z,10.80
2018-11-20T02:42:49.011Z,13.00
2018-11-20T02:52:51.021Z,14.73
2018-11-20T03:02:52.296Z,13.83
2018-11-20T03:12:53.566Z,12.67
2018-11-20T03:22:54.808Z,10.87
2018-11-20T03:32:56.825Z,12.03
2018-11-20T03:42:58.859Z,10.87
2018-11-20T03:53:00.127Z,10.73
2018-11-20T04:03:02.166Z,11.53
2018-11-20T04:13:03.439Z,12.30
2018-11-20T06:04:24.972Z,15.97
2018-11-20T06:14:26.327Z,15.07
2018-11-20T06:24:27.665Z,16.03
2018-11-20T06:34:29.054Z,15.73
2018-11-20T06:44:30.295Z,15.20
2018-11-20T07:04:42.720Z,18.27
2018-11-20T07:14:44.056Z,18.30
2018-11-20T07:24:45.397Z,15.43
2018-11-20T07:34:46.733Z,13.17
2018-11-20T07:44:48.047Z,12.00
2018-11-20T07:54:49.427Z,11.50
2018-11-20T08:04:50.811Z,13.20
2018-11-20T08:14:52.193Z,12.90
2018-11-20T08:24:53.487Z,12.47
2018-11-20T08:34:54.779Z,11.33
2018-11-20T08:44:56.107Z,10.87
2018-11-20T08:54:57.401Z,10.20
2018-11-20T09:04:58.679Z,10.23
2018-11-20T09:15:00.011Z,9.80
2018-11-20T09:25:01.272Z,9.53
2018-11-20T09:35:02.616Z,9.60
2018-11-20T09:45:03.844Z,10.27
2018-11-20T09:55:05.135Z,7.90
2018-11-20T10:05:06.522Z,7.00
2018-11-20T10:15:07.876Z,6.90
2018-11-20T10:25:09.210Z,7.13
2018-11-20T10:35:10.498Z,7.60
2018-11-20T10:45:11.807Z,6.07
2018-11-20T10:55:13.157Z,6.60
